sensor_id;sensor_type;location;lat;lon;timestamp;temperature;humidity
50606;DHT22;36557;53.572;10.170;2022-11-20T00:03:35;1.20;99.90
50606;DHT22;36557;53.572;10.170;2022-11-20T00:06:02;1.30;99.90
50606;DHT22;36557;53.572;10.170;2022-11-20T00:08:28;1.30;99.90
50606;DHT22;36557;53.572;10.170;2022-11-20T00:10:54;1.30;99.90
50606;DHT22;36557;53.572;10.170;2022-11-20T00:13:20;1.30;99.90
50606;DHT22;36557;53.572;10.170;2022-11-20T00:15:45;1.30;99.90
50606;DHT22;36557;53.572;10.170;2022-11-20T00:18:11;1.30;99.90
50606;DHT22;36557;53.572;10.170;2022-11-20T00:20:37;1.30;99.90
50606;DHT22;36557;53.572;10.170;2022-11-20T00:23:02;1.30;99.90
50606;DHT22;36557;53.572;10.170;2022-11-20T00:25:28;1.30;99.90
50606;DHT22;36557;53.572;10.170;2022-11-20T00:27:54;1.20;99.90
50606;DHT22;36557;53.572;10.170;2022-11-20T00:30:20;1.30;99.90
50606;DHT22;36557;53.572;10.170;2022-11-20T00:32:45;1.30;99.90
50606;DHT22;36557;53.572;10.170;2022-11-20T00:35:11;1.30;99.90
50606;DHT22;36557;53.572;10.170;2022-11-20T00:37:37;1.30;99.90
50606;DHT22;36557;53.572;10.170;2022-11-20T00:40:03;1.30;99.90
50606;DHT22;36557;53.572;10.170;2022-11-20T00:42:29;1.30;99.90
50606;DHT22;36557;53.572;10.170;2022-11-20T00:44:54;1.30;99.90
50606;DHT22;36557;53.572;10.170;2022-11-20T00:47:20;1.30;99.90
50606;DHT22;36557;53.572;10.170;2022-11-20T00:49:46;1.30;99.90
50606;DHT22;36557;53.572;10.170;2022-11-20T00:52:11;1.30;99.90
50606;DHT22;36557;53.572;10.170;2022-11-20T00:54:37;1.30;99.90
50606;DHT22;36557;53.572;10.170;2022-11-20T00:57:03;1.30;99.90
50606;DHT22;36557;53.572;10.170;2022-11-20T00:59:28;1.30;99.90
50606;DHT22;36557;53.572;10.170;2022-11-20T01:01:54;1.20;99.90
50606;DHT22;36557;53.572;10.170;2022-11-20T01:04:20;1.20;99.90
50606;DHT22;36557;53.572;10.170;2022-11-20T01:06:45;1.20;99.90
50606;DHT22;36557;53.572;10.170;2022-11-20T01:09:13;1.20;99.90
50606;DHT22;36557;53.572;10.170;2022-11-20T01:11:44;1.20;99.90
50606;DHT22;36557;53.572;10.170;2022-11-20T01:14:14;1.20;99.90
50606;DHT22;36557;53.572;10.170;2022-11-20T01:16:43;1.20;99.90
50606;DHT22;36557;53.572;10.170;2022-11-20T01:19:14;1.20;99.90
50606;DHT22;36557;53.572;10.170;2022-11-20T01:21:42;1.20;99.90
50606;DHT22;36557;53.572;10.170;2022-11-20T01:24:12;1.10;99.90
50606;DHT22;36557;53.572;10.170;2022-11-20T01:26:39;1.20;99.90
50606;DHT22;36557;53.572;10.170;2022-11-20T01:29:06;1.20;99.90
50606;DHT22;36557;53.572;10.170;2022-11-20T01:31:34;1.20;99.90
50606;DHT22;36557;53.572;10.170;2022-11-20T01:34:02;1.20;99.90
50606;DHT22;36557;53.572;10.170;2022-11-20T01:36:30;1.20;99.90
50606;DHT22;36557;53.572;10.170;2022-11-20T01:39:02;1.20;99.90
50606;DHT22;36557;53.572;10.170;2022-11-20T01:41:31;1.20;99.90
50606;DHT22;36557;53.572;10.170;2022-11-20T01:44:19;1.20;99.90
50606;DHT22;36557;53.572;10.170;2022-11-20T01:47:00;1.20;99.90
50606;DHT22;36557;53.572;10.170;2022-11-20T01:49:49;1.20;99.90
50606;DHT22;36557;53.572;10.170;2022-11-20T01:52:22;1.20;99.90
50606;DHT22;36557;53.572;10.170;2022-11-20T01:55:02;1.20;99.90
50606;DHT22;36557;53.572;10.170;2022-11-20T01:57:31;1.20;99.90
50606;DHT22;36557;53.572;10.170;2022-11-20T02:00:13;1.20;99.90
50606;DHT22;36557;53.572;10.170;2022-11-20T02:03:02;1.20;99.90
50606;DHT22;36557;53.572;10.170;2022-11-20T02:05:35;1.20;99.90
50606;DHT22;36557;53.572;10.170;2022-11-20T02:08:03;1.20;99.90
50606;DHT22;36557;53.572;10.170;2022-11-20T02:10:30;1.20;99.90
50606;DHT22;36557;53.572;10.170;2022-11-20T02:12:56;1.20;99.90
50606;DHT22;36557;53.572;10.170;2022-11-20T02:15:40;1.20;99.90
50606;DHT22;36557;53.572;10.170;2022-11-20T02:18:06;1.20;99.90
50606;DHT22;36557;53.572;10.170;2022-11-20T02:20:33;1.20;99.90
50606;DHT22;36557;53.572;10.170;2022-11-20T02:23:08;1.20;99.90
50606;DHT22;36557;53.572;10.170;2022-11-20T02:25:36;1.20;99.90
50606;DHT22;36557;53.572;10.170;2022-11-20T02:28:02;1.20;99.90
50606;DHT22;36557;53.572;10.170;2022-11-20T02:30:28;1.10;99.90
50606;DHT22;36557;53.572;10.170;2022-11-20T02:32:53;1.10;99.90
50606;DHT22;36557;53.572;10.170;2022-11-20T02:37:48;1.10;99.90
50606;DHT22;36557;53.572;10.170;2022-11-20T02:40:15;1.10;99.90
50606;DHT22;36557;53.572;10.170;2022-11-20T02:42:40;1.10;99.90
50606;DHT22;36557;53.572;10.170;2022-11-20T02:45:07;1.10;99.90
50606;DHT22;36557;53.572;10.170;2022-11-20T02:47:33;1.10;99.90
50606;DHT22;36557;53.572;10.170;2022-11-20T02:49:59;1.10;99.90
50606;DHT22;36557;53.572;10.170;2022-11-20T02:52:25;1.10;99.90
50606;DHT22;36557;53.572;10.170;2022-11-20T02:54:51;1.10;99.90
50606;DHT22;36557;53.572;10.170;2022-11-20T02:57:17;1.00;99.90
50606;DHT22;36557;53.572;10.170;2022-11-20T02:59:42;1.00;99.90
50606;DHT22;36557;53.572;10.170;2022-11-20T03:02:08;1.00;99.90
50606;DHT22;36557;53.572;10.170;2022-11-20T03:04:34;1.00;99.90
50606;DHT22;36557;53.572;10.170;2022-11-20T03:07:00;1.00;99.90
50606;DHT22;36557;53.572;10.170;2022-11-20T03:09:26;1.00;99.90
50606;DHT22;36557;53.572;10.170;2022-11-20T03:11:51;1.00;99.90
50606;DHT22;36557;53.572;10.170;2022-11-20T03:14:17;1.00;99.90
50606;DHT22;36557;53.572;10.170;2022-11-20T03:16:43;1.00;99.90
50606;DHT22;36557;53.572;10.170;2022-11-20T03:19:09;1.00;99.90
50606;DHT22;36557;53.572;10.170;2022-11-20T03:24:04;1.00;99.90
50606;DHT22;36557;53.572;10.170;2022-11-20T03:26:30;1.00;99.90
50606;DHT22;36557;53.572;10.170;2022-11-20T03:28:57;1.00;99.90
50606;DHT22;36557;53.572;10.170;2022-11-20T03:31:29;1.00;99.90
50606;DHT22;36557;53.572;10.170;2022-11-20T03:33:56;1.00;99.90
50606;DHT22;36557;53.572;10.170;2022-11-20T03:36:22;1.00;99.90
50606;DHT22;36557;53.572;10.170;2022-11-20T03:38:48;1.00;99.90
50606;DHT22;36557;53.572;10.170;2022-11-20T03:41:19;1.10;99.90
50606;DHT22;36557;53.572;10.170;2022-11-20T03:43:52;1.10;99.90
50606;DHT22;36557;53.572;10.170;2022-11-20T03:46:19;1.00;99.90
50606;DHT22;36557;53.572;10.170;2022-11-20T03:48:45;1.00;99.90
50606;DHT22;36557;53.572;10.170;2022-11-20T03:51:22;1.00;99.90
50606;DHT22;36557;53.572;10.170;2022-11-20T03:53:50;1.00;99.90
50606;DHT22;36557;53.572;10.170;2022-11-20T03:56:17;1.10;99.90
50606;DHT22;36557;53.572;10.170;2022-11-20T03:58:44;1.10;99.90
50606;DHT22;36557;53.572;10.170;2022-11-20T04:01:18;1.10;99.90
50606;DHT22;36557;53.572;10.170;2022-11-20T04:03:45;1.10;99.90
50606;DHT22;36557;53.572;10.170;2022-11-20T04:06:16;1.10;99.90
50606;DHT22;36557;53.572;10.170;2022-11-20T04:08:42;1.10;99.90
50606;DHT22;36557;53.572;10.170;2022-11-20T04:11:19;1.00;99.90
50606;DHT22;36557;53.572;10.170;2022-11-20T04:13:57;1.10;99.90
50606;DHT22;36557;53.572;10.170;2022-11-20T04:16:24;1.10;99.90
50606;DHT22;36557;53.572;10.170;2022-11-20T04:19:00;1.10;99.90
50606;DHT22;36557;53.572;10.170;2022-11-20T04:21:27;1.10;99.90
50606;DHT22;36557;53.572;10.170;2022-11-20T04:23:54;1.10;99.90
50606;DHT22;36557;53.572;10.170;2022-11-20T04:26:22;1.10;99.90
50606;DHT22;36557;53.572;10.170;2022-11-20T04:28:48;1.10;99.90
50606;DHT22;36557;53.572;10.170;2022-11-20T04:31:16;1.10;99.90
50606;DHT22;36557;53.572;10.170;2022-11-20T04:33:42;1.10;99.90
50606;DHT22;36557;53.572;10.170;2022-11-20T04:36:11;1.10;99.90
50606;DHT22;36557;53.572;10.170;2022-11-20T04:38:37;1.10;99.90
50606;DHT22;36557;53.572;10.170;2022-11-20T04:41:05;1.10;99.90
50606;DHT22;36557;53.572;10.170;2022-11-20T04:43:32;1.10;99.90
50606;DHT22;36557;53.572;10.170;2022-11-20T04:45:58;1.10;99.90
50606;DHT22;36557;53.572;10.170;2022-11-20T04:48:26;1.00;99.90
50606;DHT22;36557;53.572;10.170;2022-11-20T04:50:53;1.00;99.90
50606;DHT22;36557;53.572;10.170;2022-11-20T04:53:19;1.00;99.90
50606;DHT22;36557;53.572;10.170;2022-11-20T04:55:45;1.00;99.90
50606;DHT22;36557;53.572;10.170;2022-11-20T04:58:12;0.90;99.90
50606;DHT22;36557;53.572;10.170;2022-11-20T05:00:38;0.90;99.90
50606;DHT22;36557;53.572;10.170;2022-11-20T05:03:04;0.90;99.90
50606;DHT22;36557;53.572;10.170;2022-11-20T05:05:29;0.90;99.90
50606;DHT22;36557;53.572;10.170;2022-11-20T05:07:58;0.90;99.90
50606;DHT22;36557;53.572;10.170;2022-11-20T05:10:25;0.90;99.90
50606;DHT22;36557;53.572;10.170;2022-11-20T05:12:50;0.90;99.90
50606;DHT22;36557;53.572;10.170;2022-11-20T05:15:16;0.90;99.90
50606;DHT22;36557;53.572;10.170;2022-11-20T05:17:50;0.90;99.90
50606;DHT22;36557;53.572;10.170;2022-11-20T05:20:17;0.90;99.90
50606;DHT22;36557;53.572;10.170;2022-11-20T05:22:43;0.90;99.90
50606;DHT22;36557;53.572;10.170;2022-11-20T05:25:10;0.90;99.90
50606;DHT22;36557;53.572;10.170;2022-11-20T05:27:36;0.90;99.90
50606;DHT22;36557;53.572;10.170;2022-11-20T05:30:02;0.90;99.90
50606;DHT22;36557;53.572;10.170;2022-11-20T05:32:28;0.90;99.90
50606;DHT22;36557;53.572;10.170;2022-11-20T05:34:53;0.80;99.90
50606;DHT22;36557;53.572;10.170;2022-11-20T05:37:19;0.90;99.90
50606;DHT22;36557;53.572;10.170;2022-11-20T05:39:45;0.90;99.90
50606;DHT22;36557;53.572;10.170;2022-11-20T05:42:10;0.90;99.90
50606;DHT22;36557;53.572;10.170;2022-11-20T05:44:55;0.90;99.90
50606;DHT22;36557;53.572;10.170;2022-11-20T05:47:21;0.90;99.90
50606;DHT22;36557;53.572;10.170;2022-11-20T05:49:47;0.90;99.90
50606;DHT22;36557;53.572;10.170;2022-11-20T05:52:12;0.90;99.90
50606;DHT22;36557;53.572;10.170;2022-11-20T05:54:38;0.90;99.90
50606;DHT22;36557;53.572;10.170;2022-11-20T05:57:04;0.90;99.90
50606;DHT22;36557;53.572;10.170;2022-11-20T05:59:29;0.90;99.90
50606;DHT22;36557;53.572;10.170;2022-11-20T06:01:55;0.90;99.90
50606;DHT22;36557;53.572;10.170;2022-11-20T06:04:21;0.90;99.90
50606;DHT22;36557;53.572;10.170;2022-11-20T06:06:46;0.90;99.90
50606;DHT22;36557;53.572;10.170;2022-11-20T06:09:12;0.90;99.90
50606;DHT22;36557;53.572;10.170;2022-11-20T06:11:38;0.90;99.90
50606;DHT22;36557;53.572;10.170;2022-11-20T06:14:04;0.90;99.90
50606;DHT22;36557;53.572;10.170;2022-11-20T06:16:29;0.90;99.90
50606;DHT22;36557;53.572;10.170;2022-11-20T06:18:55;1.00;99.90
50606;DHT22;36557;53.572;10.170;2022-11-20T06:21:25;0.90;99.90
50606;DHT22;36557;53.572;10.170;2022-11-20T06:23:52;1.00;99.90
50606;DHT22;36557;53.572;10.170;2022-11-20T06:26:21;0.90;99.90
50606;DHT22;36557;53.572;10.170;2022-11-20T06:28:47;0.90;99.90
50606;DHT22;36557;53.572;10.170;2022-11-20T06:31:14;0.90;99.90
50606;DHT22;36557;53.572;10.170;2022-11-20T06:33:42;0.90;99.90
50606;DHT22;36557;53.572;10.170;2022-11-20T06:36:11;0.90;99.90
50606;DHT22;36557;53.572;10.170;2022-11-20T06:38:38;0.90;99.90
50606;DHT22;36557;53.572;10.170;2022-11-20T06:41:05;0.90;99.90
50606;DHT22;36557;53.572;10.170;2022-11-20T06:43:30;0.90;99.90
50606;DHT22;36557;53.572;10.170;2022-11-20T06:45:58;0.90;99.90
50606;DHT22;36557;53.572;10.170;2022-11-20T06:48:25;0.90;99.90
50606;DHT22;36557;53.572;10.170;2022-11-20T06:50:51;0.90;99.90
50606;DHT22;36557;53.572;10.170;2022-11-20T06:53:17;0.80;99.90
50606;DHT22;36557;53.572;10.170;2022-11-20T06:55:44;0.90;99.90
50606;DHT22;36557;53.572;10.170;2022-11-20T06:58:11;0.90;99.90
50606;DHT22;36557;53.572;10.170;2022-11-20T07:00:37;0.90;99.90
50606;DHT22;36557;53.572;10.170;2022-11-20T07:03:04;0.80;99.90
50606;DHT22;36557;53.572;10.170;2022-11-20T07:05:30;0.80;99.90
50606;DHT22;36557;53.572;10.170;2022-11-20T07:07:56;0.80;99.90
50606;DHT22;36557;53.572;10.170;2022-11-20T07:10:23;0.80;99.90
50606;DHT22;36557;53.572;10.170;2022-11-20T07:12:50;0.80;99.90
50606;DHT22;36557;53.572;10.170;2022-11-20T07:15:16;0.80;99.90
50606;DHT22;36557;53.572;10.170;2022-11-20T07:17:42;0.80;99.90
50606;DHT22;36557;53.572;10.170;2022-11-20T07:20:08;0.80;99.90
50606;DHT22;36557;53.572;10.170;2022-11-20T07:22:34;0.90;99.90
50606;DHT22;36557;53.572;10.170;2022-11-20T07:25:00;0.90;99.90
50606;DHT22;36557;53.572;10.170;2022-11-20T07:27:27;0.90;99.90
50606;DHT22;36557;53.572;10.170;2022-11-20T07:29:53;0.90;99.90
50606;DHT22;36557;53.572;10.170;2022-11-20T07:32:19;0.90;99.90
50606;DHT22;36557;53.572;10.170;2022-11-20T07:34:44;0.90;99.90
50606;DHT22;36557;53.572;10.170;2022-11-20T07:37:10;0.90;99.90
50606;DHT22;36557;53.572;10.170;2022-11-20T07:39:36;0.90;99.90
50606;DHT22;36557;53.572;10.170;2022-11-20T07:42:01;0.90;99.90
50606;DHT22;36557;53.572;10.170;2022-11-20T07:44:27;0.90;99.90
50606;DHT22;36557;53.572;10.170;2022-11-20T07:46:53;0.90;99.90
50606;DHT22;36557;53.572;10.170;2022-11-20T07:49:18;0.90;99.90
50606;DHT22;36557;53.572;10.170;2022-11-20T07:51:44;0.90;99.90
50606;DHT22;36557;53.572;10.170;2022-11-20T07:54:10;0.90;99.90
50606;DHT22;36557;53.572;10.170;2022-11-20T07:56:35;0.90;99.90
50606;DHT22;36557;53.572;10.170;2022-11-20T07:59:01;0.90;99.90
50606;DHT22;36557;53.572;10.170;2022-11-20T08:01:28;0.90;99.90
50606;DHT22;36557;53.572;10.170;2022-11-20T08:03:54;0.90;99.90
50606;DHT22;36557;53.572;10.170;2022-11-20T08:06:19;0.90;99.90
50606;DHT22;36557;53.572;10.170;2022-11-20T08:08:45;1.00;99.90
50606;DHT22;36557;53.572;10.170;2022-11-20T08:11:11;1.00;99.90
50606;DHT22;36557;53.572;10.170;2022-11-20T08:13:55;1.10;99.90
50606;DHT22;36557;53.572;10.170;2022-11-20T08:16:43;1.10;99.90
50606;DHT22;36557;53.572;10.170;2022-11-20T08:19:09;1.10;99.90
50606;DHT22;36557;53.572;10.170;2022-11-20T08:21:35;1.10;99.90
50606;DHT22;36557;53.572;10.170;2022-11-20T08:24:01;1.20;99.90
50606;DHT22;36557;53.572;10.170;2022-11-20T08:26:27;1.20;99.90
50606;DHT22;36557;53.572;10.170;2022-11-20T08:28:54;1.30;99.90
50606;DHT22;36557;53.572;10.170;2022-11-20T08:31:21;1.20;99.90
50606;DHT22;36557;53.572;10.170;2022-11-20T08:33:47;1.30;99.90
50606;DHT22;36557;53.572;10.170;2022-11-20T08:36:12;1.30;99.90
50606;DHT22;36557;53.572;10.170;2022-11-20T08:38:38;1.40;99.90
50606;DHT22;36557;53.572;10.170;2022-11-20T08:41:04;1.40;99.90
50606;DHT22;36557;53.572;10.170;2022-11-20T08:43:53;1.50;99.90
50606;DHT22;36557;53.572;10.170;2022-11-20T08:46:19;1.60;99.90
50606;DHT22;36557;53.572;10.170;2022-11-20T08:48:45;1.50;99.90
50606;DHT22;36557;53.572;10.170;2022-11-20T08:51:11;1.50;99.90
50606;DHT22;36557;53.572;10.170;2022-11-20T08:53:41;1.50;99.90
50606;DHT22;36557;53.572;10.170;2022-11-20T08:56:07;1.50;99.90
50606;DHT22;36557;53.572;10.170;2022-11-20T08:58:33;1.50;99.90
50606;DHT22;36557;53.572;10.170;2022-11-20T09:00:58;1.50;99.90
50606;DHT22;36557;53.572;10.170;2022-11-20T09:03:24;1.40;99.90
50606;DHT22;36557;53.572;10.170;2022-11-20T09:05:57;1.30;99.90
50606;DHT22;36557;53.572;10.170;2022-11-20T09:08:23;1.30;99.90
50606;DHT22;36557;53.572;10.170;2022-11-20T09:10:54;1.30;99.90
50606;DHT22;36557;53.572;10.170;2022-11-20T09:13:21;1.40;99.90
50606;DHT22;36557;53.572;10.170;2022-11-20T09:15:52;1.50;99.90
50606;DHT22;36557;53.572;10.170;2022-11-20T09:18:18;1.50;99.90
50606;DHT22;36557;53.572;10.170;2022-11-20T09:20:43;1.50;99.90
50606;DHT22;36557;53.572;10.170;2022-11-20T09:23:09;1.50;99.90
50606;DHT22;36557;53.572;10.170;2022-11-20T09:25:35;1.70;99.90
50606;DHT22;36557;53.572;10.170;2022-11-20T09:28:00;1.70;99.90
50606;DHT22;36557;53.572;10.170;2022-11-20T09:30:27;1.80;99.90
50606;DHT22;36557;53.572;10.170;2022-11-20T09:32:53;1.80;99.90
50606;DHT22;36557;53.572;10.170;2022-11-20T09:35:19;1.80;99.90
50606;DHT22;36557;53.572;10.170;2022-11-20T09:37:45;1.90;99.90
50606;DHT22;36557;53.572;10.170;2022-11-20T09:40:28;1.90;99.90
50606;DHT22;36557;53.572;10.170;2022-11-20T09:43:13;1.90;99.90
50606;DHT22;36557;53.572;10.170;2022-11-20T09:48:58;1.80;99.90
50606;DHT22;36557;53.572;10.170;2022-11-20T09:54:18;1.80;99.90
50606;DHT22;36557;53.572;10.170;2022-11-20T09:56:51;1.90;99.90
50606;DHT22;36557;53.572;10.170;2022-11-20T09:59:40;1.80;99.90
50606;DHT22;36557;53.572;10.170;2022-11-20T10:02:58;1.90;99.90
50606;DHT22;36557;53.572;10.170;2022-11-20T10:05:11;2.00;99.90
50606;DHT22;36557;53.572;10.170;2022-11-20T10:10:58;2.10;99.90
50606;DHT22;36557;53.572;10.170;2022-11-20T10:13:48;2.00;99.90
50606;DHT22;36557;53.572;10.170;2022-11-20T10:29:47;2.00;99.90
50606;DHT22;36557;53.572;10.170;2022-11-20T10:32:18;2.00;99.90
50606;DHT22;36557;53.572;10.170;2022-11-20T10:34:58;2.00;99.90
50606;DHT22;36557;53.572;10.170;2022-11-20T10:37:26;2.10;99.90
50606;DHT22;36557;53.572;10.170;2022-11-20T10:40:05;2.10;99.90
50606;DHT22;36557;53.572;10.170;2022-11-20T10:42:45;2.20;99.90
50606;DHT22;36557;53.572;10.170;2022-11-20T10:48:25;2.20;99.90
50606;DHT22;36557;53.572;10.170;2022-11-20T10:59:19;2.10;99.90
50606;DHT22;36557;53.572;10.170;2022-11-20T11:01:50;2.00;99.90
50606;DHT22;36557;53.572;10.170;2022-11-20T11:04:26;1.90;99.90
50606;DHT22;36557;53.572;10.170;2022-11-20T11:07:01;1.90;99.90
50606;DHT22;36557;53.572;10.170;2022-11-20T11:09:34;2.00;99.90
50606;DHT22;36557;53.572;10.170;2022-11-20T11:12:01;2.20;99.90
50606;DHT22;36557;53.572;10.170;2022-11-20T11:14:26;2.30;99.90
50606;DHT22;36557;53.572;10.170;2022-11-20T11:16:55;2.20;99.90
50606;DHT22;36557;53.572;10.170;2022-11-20T11:19:21;2.10;99.90
50606;DHT22;36557;53.572;10.170;2022-11-20T11:21:53;2.00;99.90
50606;DHT22;36557;53.572;10.170;2022-11-20T11:24:29;1.90;99.90
50606;DHT22;36557;53.572;10.170;2022-11-20T11:27:01;2.00;99.90
50606;DHT22;36557;53.572;10.170;2022-11-20T11:29:32;2.00;99.90
50606;DHT22;36557;53.572;10.170;2022-11-20T11:32:17;2.00;99.90
50606;DHT22;36557;53.572;10.170;2022-11-20T11:34:43;2.00;99.90
50606;DHT22;36557;53.572;10.170;2022-11-20T11:37:18;2.20;99.90
50606;DHT22;36557;53.572;10.170;2022-11-20T11:39:46;2.40;99.90
50606;DHT22;36557;53.572;10.170;2022-11-20T11:42:17;2.50;99.90
50606;DHT22;36557;53.572;10.170;2022-11-20T11:44:47;2.50;99.90
50606;DHT22;36557;53.572;10.170;2022-11-20T11:47:51;2.40;99.90
50606;DHT22;36557;53.572;10.170;2022-11-20T11:50:20;2.00;99.90
50606;DHT22;36557;53.572;10.170;2022-11-20T11:53:03;1.80;99.90
50606;DHT22;36557;53.572;10.170;2022-11-20T11:55:50;1.80;99.90
50606;DHT22;36557;53.572;10.170;2022-11-20T12:01:30;1.90;99.90
50606;DHT22;36557;53.572;10.170;2022-11-20T12:06:50;2.10;99.90
50606;DHT22;36557;53.572;10.170;2022-11-20T12:09:20;2.20;99.90
50606;DHT22;36557;53.572;10.170;2022-11-20T12:12:14;2.20;99.90
50606;DHT22;36557;53.572;10.170;2022-11-20T12:14:45;2.20;99.90
50606;DHT22;36557;53.572;10.170;2022-11-20T12:17:13;2.10;99.90
50606;DHT22;36557;53.572;10.170;2022-11-20T12:19:39;2.20;99.90
50606;DHT22;36557;53.572;10.170;2022-11-20T12:30:14;2.30;99.90
50606;DHT22;36557;53.572;10.170;2022-11-20T12:38:24;2.30;99.90
50606;DHT22;36557;53.572;10.170;2022-11-20T12:51:14;2.50;99.90
50606;DHT22;36557;53.572;10.170;2022-11-20T13:01:55;2.50;99.90
50606;DHT22;36557;53.572;10.170;2022-11-20T13:07:16;2.60;99.90
50606;DHT22;36557;53.572;10.170;2022-11-20T13:09:47;2.70;99.90
50606;DHT22;36557;53.572;10.170;2022-11-20T13:18:01;2.60;99.90
50606;DHT22;36557;53.572;10.170;2022-11-20T13:20:29;2.50;99.90
50606;DHT22;36557;53.572;10.170;2022-11-20T13:22:56;2.60;99.90
50606;DHT22;36557;53.572;10.170;2022-11-20T13:27:52;2.90;99.90
50606;DHT22;36557;53.572;10.170;2022-11-20T13:30:21;2.90;99.90
50606;DHT22;36557;53.572;10.170;2022-11-20T13:32:58;2.90;99.90
50606;DHT22;36557;53.572;10.170;2022-11-20T13:35:30;3.00;99.90
50606;DHT22;36557;53.572;10.170;2022-11-20T13:38:02;3.00;99.90
50606;DHT22;36557;53.572;10.170;2022-11-20T13:40:29;2.90;99.90
50606;DHT22;36557;53.572;10.170;2022-11-20T13:42:56;2.80;99.90
50606;DHT22;36557;53.572;10.170;2022-11-20T13:45:30;2.80;99.90
50606;DHT22;36557;53.572;10.170;2022-11-20T13:47:58;2.90;99.90
50606;DHT22;36557;53.572;10.170;2022-11-20T13:50:44;2.80;99.90
50606;DHT22;36557;53.572;10.170;2022-11-20T13:53:33;2.80;99.90
50606;DHT22;36557;53.572;10.170;2022-11-20T13:59:05;2.70;99.90
50606;DHT22;36557;53.572;10.170;2022-11-20T14:01:35;2.70;99.90
50606;DHT22;36557;53.572;10.170;2022-11-20T14:04:07;2.60;99.90
50606;DHT22;36557;53.572;10.170;2022-11-20T14:06:42;2.70;99.90
50606;DHT22;36557;53.572;10.170;2022-11-20T14:09:32;2.70;99.90
50606;DHT22;36557;53.572;10.170;2022-11-20T14:11:58;2.60;99.90
50606;DHT22;36557;53.572;10.170;2022-11-20T14:14:26;2.60;99.90
50606;DHT22;36557;53.572;10.170;2022-11-20T14:17:23;2.50;99.90
50606;DHT22;36557;53.572;10.170;2022-11-20T14:19:51;2.50;99.90
50606;DHT22;36557;53.572;10.170;2022-11-20T14:22:25;2.50;99.90
50606;DHT22;36557;53.572;10.170;2022-11-20T14:27:56;2.50;99.90
50606;DHT22;36557;53.572;10.170;2022-11-20T14:30:28;2.40;99.90
50606;DHT22;36557;53.572;10.170;2022-11-20T14:33:01;2.40;99.90
